Time;durP1;ratioP1;P1;durP2;ratioP2;P2;SDS_P1;SDS_P2;PMS_P1;PMS_P2;Temp;Humidity;BMP_temperature;BMP_pressure;BME280_temperature;BME280_humidity;BME280_pressure;Samples;Min_cycle;Max_cycle;Signal;HPM_P1;HPM_P2
2023/07/29 00:01:17;;;;;;;13.70;8.82;;;;;;;;;;5062270;28;20048;-81
2023/07/29 00:03:43;;;;;;;14.30;8.77;;;;;;;;;;5045936;28;20048;-81
2023/07/29 00:06:10;;;;;;;12.05;8.85;;;16.90;99.90;;;;;;5062258;28;20075;-81
2023/07/29 00:08:36;;;;;;;14.60;8.57;;;;;;;;;;5057832;28;20867;-82
2023/07/29 00:11:02;;;;;;;12.07;8.85;;;;;;;;;;5060165;28;20397;-82
2023/07/29 00:13:28;;;;;;;12.75;9.10;;;;;;;;;;5042295;28;20107;-81
2023/07/29 00:15:58;;;;;;;9.90;8.82;;;;;;;;;;5038235;28;20052;-80
2023/07/29 00:18:24;;;;;;;12.85;9.23;;;;;;;;;;5039115;28;20040;-79
2023/07/29 00:20:50;;;;;;;11.70;10.05;;;;;;;;;;5062182;28;20140;-82
2023/07/29 00:23:18;;;;;;;13.93;9.35;;;16.60;99.90;;;;;;5045600;28;20077;-79
2023/07/29 00:25:45;;;;;;;14.00;10.00;;;;;;;;;;5062168;28;20192;-83
2023/07/29 00:28:12;;;;;;;15.25;10.13;;;;;;;;;;5061987;28;20803;-80
2023/07/29 00:30:38;;;;;;;15.68;10.95;;;;;;;;;;5061475;28;20420;-83
2023/07/29 00:33:04;;;;;;;15.18;9.85;;;;;;;;;;5079853;28;20048;-80
2023/07/29 00:35:30;;;;;;;17.77;11.60;;;;;;;;;;5062079;28;20109;-80
2023/07/29 00:37:56;;;;;;;14.52;10.98;;;;;;;;;;5045106;28;20275;-80
2023/07/29 00:40:23;;;;;;;16.92;11.30;;;;;;;;;;5062548;28;20496;-80
2023/07/29 00:42:52;;;;;;;17.60;12.38;;;;;;;;;;5059737;28;20048;-80
2023/07/29 00:45:19;;;;;;;16.10;10.35;;;;;;;;;;5056445;28;20056;-85
2023/07/29 00:47:45;;;;;;;14.60;11.80;;;;;;;;;;5045344;28;20054;-81
2023/07/29 00:50:13;;;;;;;18.55;12.05;;;16.40;99.90;;;;;;5062302;28;20055;-82
2023/07/29 00:52:39;;;;;;;18.48;12.23;;;;;;;;;;5040188;28;20780;-81
2023/07/29 00:55:06;;;;;;;22.15;12.48;;;16.40;99.90;;;;;;5060557;28;20087;-81
2023/07/29 00:57:33;;;;;;;17.20;12.32;;;;;;;;;;5060434;28;20439;-82
2023/07/29 00:59:59;;;;;;;17.95;12.23;;;16.30;99.90;;;;;;5060736;28;20105;-79
2023/07/29 01:02:26;;;;;;;16.90;13.32;;;16.30;99.90;;;;;;5060520;28;20046;-83
2023/07/29 01:05:02;;;;;;;19.08;13.35;;;16.30;99.90;;;;;;5046014;28;20048;-81
2023/07/29 01:07:38;;;;;;;20.13;13.15;;;16.20;99.90;;;;;;5064532;28;20036;-80
2023/07/29 01:10:05;;;;;;;15.25;11.55;;;;;;;;;;5065502;28;20044;-80
2023/07/29 01:12:45;;;;;;;21.48;13.40;;;16.20;99.90;;;;;;5064589;28;20048;-80
2023/07/29 01:15:16;;;;;;;22.25;13.35;;;16.10;99.90;;;;;;5065539;28;20149;-79
2023/07/29 01:17:55;;;;;;;20.17;12.88;;;16.10;99.90;;;;;;5065883;28;20051;-79
2023/07/29 01:20:24;;;;;;;23.20;13.52;;;16.10;99.90;;;;;;5060775;28;20749;-81
2023/07/29 01:22:50;;;;;;;20.15;13.32;;;;;;;;;;5048724;28;20138;-82
2023/07/29 01:25:17;;;;;;;21.10;13.15;;;;;;;;;;5063309;28;20045;-79
2023/07/29 01:27:45;;;;;;;19.45;12.57;;;16.00;99.90;;;;;;5064921;28;20554;-80
2023/07/29 01:30:11;;;;;;;20.98;13.63;;;;;;;;;;5065065;28;20383;-80
2023/07/29 01:32:43;;;;;;;23.83;12.60;;;16.00;99.90;;;;;;5065034;28;20052;-80
2023/07/29 01:35:34;;;;;;;23.42;14.30;;;16.10;99.90;;;;;;5077843;28;20089;-81
2023/07/29 01:38:14;;;;;;;22.95;14.18;;;15.90;99.90;;;;;;5048295;28;20135;-81
2023/07/29 01:40:40;;;;;;;20.17;13.38;;;;;;;;;;5062342;28;20086;-79
2023/07/29 01:43:08;;;;;;;24.00;14.00;;;;;;;;;;5064575;28;20109;-82
2023/07/29 01:45:37;;;;;;;24.20;14.73;;;;;;;;;;5064322;28;20061;-80
2023/07/29 01:48:05;;;;;;;21.77;14.43;;;15.80;99.90;;;;;;5063097;28;20146;-79
2023/07/29 01:50:31;;;;;;;21.38;13.02;;;;;;;;;;5062720;28;20048;-87
2023/07/29 01:52:58;;;;;;;23.00;14.25;;;;;;;;;;5062866;28;20060;-82
2023/07/29 01:55:24;;;;;;;21.13;13.13;;;;;;;;;;5063423;28;20071;-79
2023/07/29 01:57:51;;;;;;;21.33;13.25;;;;;;;;;;5063562;28;20047;-79
2023/07/29 02:00:18;;;;;;;24.17;14.50;;;;;;;;;;5059439;28;20105;-80
2023/07/29 02:02:44;;;;;;;19.02;13.00;;;;;;;;;;5064525;28;20155;-78
2023/07/29 02:05:10;;;;;;;22.10;13.27;;;;;;;;;;5069082;28;20048;-80
2023/07/29 02:07:36;;;;;;;22.75;14.02;;;;;;;;;;5063232;28;20046;-81
2023/07/29 02:10:03;;;;;;;20.17;12.82;;;;;;;;;;5047049;28;20052;-80
2023/07/29 02:12:29;;;;;;;16.63;12.55;;;;;;;;;;5062734;28;20083;-81
2023/07/29 02:14:55;;;;;;;19.67;11.95;;;;;;;;;;5064194;28;20172;-80
2023/07/29 02:17:21;;;;;;;19.30;12.23;;;;;;;;;;5063432;28;20064;-80
2023/07/29 02:19:47;;;;;;;17.98;12.13;;;;;;;;;;5064939;28;20054;-80
2023/07/29 02:22:14;;;;;;;19.05;13.00;;;;;;;;;;5047546;28;20056;-82
2023/07/29 02:24:40;;;;;;;24.58;12.35;;;;;;;;;;5064963;28;20078;-80
2023/07/29 02:27:07;;;;;;;22.17;12.27;;;;;;;;;;5063923;28;20109;-80
2023/07/29 02:29:33;;;;;;;26.60;12.90;;;;;;;;;;5061474;28;20126;-80
2023/07/29 02:32:00;;;;;;;22.40;12.10;;;;;;;;;;5063858;28;20050;-80
2023/07/29 02:34:26;;;;;;;18.25;12.45;;;;;;;;;;5063642;28;20621;-79
2023/07/29 02:36:52;;;;;;;23.50;13.13;;;;;;;;;;5060460;28;20783;-80
2023/07/29 02:39:18;;;;;;;23.90;12.85;;;;;;;;;;5040650;28;20144;-80
2023/07/29 02:41:44;;;;;;;14.95;9.73;;;;;;;;;;5043579;28;20056;-81
2023/07/29 02:44:10;;;;;;;20.67;12.00;;;;;;;;;;5041418;28;20052;-81
2023/07/29 02:46:36;;;;;;;21.65;12.27;;;;;;;;;;5054733;28;20106;-80
2023/07/29 02:49:03;;;;;;;18.45;10.85;;;;;;;;;;5060851;28;20136;-81
2023/07/29 02:51:30;;;;;;;17.63;10.85;;;;;;;;;;5060549;28;20138;-81
2023/07/29 02:53:56;;;;;;;20.63;10.18;;;;;;;;;;5060624;28;20052;-81
2023/07/29 02:56:22;;;;;;;20.65;11.60;;;;;;;;;;5054567;28;20044;-81
2023/07/29 02:58:48;;;;;;;22.38;13.18;;;;;;;;;;5059602;28;20064;-81
2023/07/29 03:01:14;;;;;;;15.32;9.75;;;;;;;;;;5053265;28;20060;-79
2023/07/29 03:03:40;;;;;;;17.00;10.15;;;;;;;;;;5060393;28;20206;-80
2023/07/29 03:06:08;;;;;;;17.48;10.32;;;;;;;;;;5037343;28;20531;-80
2023/07/29 03:08:34;;;;;;;15.63;10.88;;;;;;;;;;5047430;28;20703;-80
2023/07/29 03:11:05;;;;;;;19.00;10.75;;;;;;;;;;5057085;28;20056;-80
2023/07/29 03:13:31;;;;;;;20.08;11.20;;;;;;;;;;5060650;28;20044;-79
2023/07/29 03:16:17;;;;;;;19.38;11.05;;;;;;;;;;5060417;28;20059;-80
2023/07/29 03:18:44;;;;;;;18.00;9.57;;;;;;;;;;5037218;28;20111;-79
2023/07/29 03:21:10;;;;;;;17.75;10.95;;;;;;;;;;5039830;28;20057;-79
2023/07/29 03:23:37;;;;;;;18.70;10.18;;;;;;;;;;5060642;28;20048;-79
2023/07/29 03:26:09;;;;;;;18.75;10.52;;;;;;;;;;5054960;28;20494;-79
2023/07/29 03:28:36;;;;;;;14.93;8.60;;;;;;;;;;5043397;28;20060;-80
2023/07/29 03:31:03;;;;;;;24.33;10.30;;;;;;;;;;5059867;28;20057;-80
2023/07/29 03:33:31;;;;;;;18.00;8.88;;;;;;;;;;5041901;28;20158;-81
2023/07/29 03:35:58;;;;;;;17.63;9.60;;;;;;;;;;5059580;28;20143;-80
2023/07/29 03:38:24;;;;;;;15.95;9.57;;;;;;;;;;5060240;28;20131;-80
2023/07/29 03:40:50;;;;;;;14.77;9.85;;;15.60;99.90;;;;;;5054544;28;20139;-79
2023/07/29 03:43:16;;;;;;;16.80;9.93;;;;;;;;;;5059902;28;20048;-80
2023/07/29 03:45:42;;;;;;;17.95;10.25;;;;;;;;;;5059927;28;20094;-80
2023/07/29 03:48:09;;;;;;;15.43;10.05;;;;;;;;;;5057642;28;20055;-80
2023/07/29 03:50:36;;;;;;;21.25;10.00;;;15.30;99.90;;;;;;5049589;28;20056;-79
2023/07/29 03:53:03;;;;;;;20.23;11.32;;;15.30;99.90;;;;;;5057763;28;20048;-80
2023/07/29 03:55:32;;;;;;;16.27;10.73;;;;;;;;;;5059044;28;20049;-80
2023/07/29 03:57:58;;;;;;;20.75;11.10;;;;;;;;;;5041251;28;20049;-80
2023/07/29 04:00:25;;;;;;;18.00;10.30;;;;;;;;;;5056295;28;20048;-78
2023/07/29 04:02:51;;;;;;;17.92;9.82;;;;;;;;;;5059422;28;20048;-79
2023/07/29 04:05:17;;;;;;;17.60;11.00;;;;;;;;;;5052249;28;20589;-81
2023/07/29 04:07:43;;;;;;;20.75;10.38;;;;;;;;;;5052426;28;20088;-78
2023/07/29 04:10:09;;;;;;;16.42;10.10;;;;;;;;;;5055842;28;20884;-79
2023/07/29 04:12:36;;;;;;;18.73;10.50;;;;;;;;;;5057275;28;20078;-80
2023/07/29 04:15:02;;;;;;;18.40;10.00;;;;;;;;;;5058797;28;20045;-80
2023/07/29 04:17:28;;;;;;;14.60;9.80;;;;;;;;;;5055675;28;20052;-79
2023/07/29 04:19:54;;;;;;;17.85;10.10;;;;;;;;;;5058433;28;20040;-82
2023/07/29 04:22:20;;;;;;;15.43;9.57;;;;;;;;;;5058930;28;20135;-79
2023/07/29 04:24:47;;;;;;;13.85;9.55;;;;;;;;;;5042111;28;20052;-80
2023/07/29 04:27:13;;;;;;;17.20;9.57;;;;;;;;;;5055472;28;20481;-80
2023/07/29 04:29:39;;;;;;;12.95;9.05;;;;;;;;;;5058411;28;20052;-76
2023/07/29 04:32:05;;;;;;;15.30;9.00;;;;;;;;;;5055156;28;20671;-79
2023/07/29 04:34:32;;;;;;;16.90;8.63;;;;;;;;;;5058628;28;20540;-84
2023/07/29 04:36:58;;;;;;;17.30;7.88;;;;;;;;;;5041927;28;20429;-80
2023/07/29 04:39:24;;;;;;;13.13;7.68;;;;;;;;;;5054196;28;21711;-78
2023/07/29 04:41:50;;;;;;;14.55;7.40;;;;;;;;;;5047940;28;20053;-79
2023/07/29 04:44:16;;;;;;;11.45;7.22;;;;;;;;;;5053753;28;20124;-80
2023/07/29 04:46:43;;;;;;;15.68;7.15;;;;;;;;;;5048245;28;20055;-79
2023/07/29 04:49:09;;;;;;;13.57;7.25;;;;;;;;;;5054221;28;20477;-80
2023/07/29 04:51:37;;;;;;;12.68;6.70;;;;;;;;;;5052627;28;20049;-79
2023/07/29 04:54:03;;;;;;;10.45;7.13;;;;;;;;;;5038091;28;20051;-78
2023/07/29 04:56:29;;;;;;;9.13;5.70;;;;;;;;;;5053094;28;21274;-79
2023/07/29 04:58:55;;;;;;;8.50;5.10;;;;;;;;;;5054604;28;20063;-82
2023/07/29 05:01:21;;;;;;;8.45;5.50;;;;;;;;;;5051777;28;20049;-80
2023/07/29 05:03:47;;;;;;;7.45;4.55;;;;;;;;;;5048313;28;20032;-78
2023/07/29 05:06:13;;;;;;;7.25;4.63;;;;;;;;;;5056183;28;20044;-79
2023/07/29 05:08:39;;;;;;;6.82;4.35;;;;;;;;;;5057561;28;20044;-79
2023/07/29 05:11:05;;;;;;;7.40;4.15;;;;;;;;;;5054684;28;20048;-80
2023/07/29 05:13:31;;;;;;;8.05;4.57;;;;;;;;;;5053092;28;20059;-78
2023/07/29 05:15:58;;;;;;;6.63;4.38;;;;;;;;;;5054438;28;20460;-76
2023/07/29 05:18:24;;;;;;;7.15;4.22;;;;;;;;;;5049818;28;20045;-78
2023/07/29 05:20:50;;;;;;;5.95;4.15;;;;;;;;;;5045762;28;20826;-79
2023/07/29 05:23:16;;;;;;;6.25;3.88;;;;;;;;;;5052626;28;20064;-77
2023/07/29 05:25:42;;;;;;;6.35;3.90;;;;;;;;;;5053499;28;20041;-77
2023/07/29 05:28:09;;;;;;;5.75;3.13;;;;;;;;;;5053782;28;20114;-80
2023/07/29 05:30:37;;;;;;;7.75;3.42;;;;;;;;;;5056314;28;20479;-78
2023/07/29 05:33:04;;;;;;;7.18;3.63;;;16.60;99.90;;;;;;5041554;28;20099;-79
2023/07/29 05:35:30;;;;;;;7.97;3.80;;;;;;;;;;5051242;28;20136;-79
2023/07/29 05:37:56;;;;;;;10.48;3.25;;;;;;;;;;5053615;28;20059;-78
2023/07/29 05:40:22;;;;;;;6.45;3.42;;;;;;;;;;5045622;28;20167;-79
2023/07/29 05:42:48;;;;;;;6.00;2.83;;;;;;;;;;5056754;28;20048;-79
2023/07/29 05:45:14;;;;;;;6.28;3.00;;;;;;;;;;5058113;28;20563;-80
2023/07/29 05:47:41;;;;;;;6.55;3.03;;;16.90;99.90;;;;;;5057674;28;20044;-79
2023/07/29 05:50:08;;;;;;;8.18;2.78;;;;;;;;;;5053839;28;20129;-78
2023/07/29 05:52:34;;;;;;;9.23;3.50;;;16.90;99.90;;;;;;5054652;28;20044;-82
2023/07/29 05:55:00;;;;;;;5.97;3.28;;;;;;;;;;5057294;28;20048;-79
2023/07/29 05:57:26;;;;;;;5.28;2.83;;;;;;;;;;5059426;28;20098;-80
2023/07/29 05:59:52;;;;;;;6.65;2.92;;;;;;;;;;5056828;28;20045;-79
2023/07/29 06:02:18;;;;;;;4.50;2.65;;;;;;;;;;5051014;28;20045;-77
2023/07/29 06:04:44;;;;;;;6.15;2.90;;;;;;;;;;5054124;28;20048;-79
2023/07/29 06:07:11;;;;;;;8.93;2.78;;;;;;;;;;5052934;28;20551;-79
2023/07/29 06:09:37;;;;;;;7.85;3.75;;;;;;;;;;5054205;28;20053;-79
2023/07/29 06:12:03;;;;;;;5.95;2.80;;;;;;;;;;5054884;28;20131;-79
2023/07/29 06:14:29;;;;;;;4.97;2.60;;;;;;;;;;5051876;28;20071;-78
2023/07/29 06:16:55;;;;;;;7.65;3.15;;;;;;;;;;5049856;28;20084;-78
2023/07/29 06:19:21;;;;;;;7.47;2.53;;;;;;;;;;5039222;28;20135;-79
2023/07/29 06:21:47;;;;;;;5.90;2.90;;;;;;;;;;5046993;28;20048;-79
2023/07/29 06:24:13;;;;;;;5.55;3.15;;;;;;;;;;5041299;28;20059;-78
2023/07/29 06:26:39;;;;;;;5.22;3.08;;;;;;;;;;5054490;28;20052;-78
2023/07/29 06:29:05;;;;;;;5.35;2.60;;;;;;;;;;5053018;28;20094;-79
2023/07/29 06:31:32;;;;;;;4.93;2.70;;;;;;;;;;5037670;28;20044;-79
2023/07/29 06:33:59;;;;;;;5.40;2.85;;;;;;;;;;5060343;28;20082;-79
2023/07/29 06:36:25;;;;;;;6.13;2.65;;;;;;;;;;5051530;28;20053;-78
2023/07/29 06:38:51;;;;;;;7.47;3.25;;;;;;;;;;5051795;28;20063;-79
2023/07/29 06:41:18;;;;;;;4.32;2.78;;;;;;;;;;5037286;28;20105;-78
2023/07/29 06:43:44;;;;;;;4.32;2.55;;;;;;;;;;5057218;28;20061;-80
2023/07/29 06:46:10;;;;;;;3.60;2.42;;;;;;;;;;5027995;28;20191;-78
2023/07/29 06:48:36;;;;;;;6.95;2.65;;;;;;;;;;5056303;28;20052;-78
2023/07/29 06:51:02;;;;;;;8.18;2.30;;;;;;;;;;5038459;28;20052;-79
2023/07/29 06:53:28;;;;;;;7.43;2.80;;;;;;;;;;5055650;28;20110;-79
2023/07/29 06:55:54;;;;;;;7.45;3.95;;;;;;;;;;5054581;28;20040;-78
2023/07/29 06:58:22;;;;;;;4.75;2.60;;;;;;;;;;5056004;28;20040;-80
2023/07/29 07:00:48;;;;;;;5.13;2.13;;;;;;;;;;5049128;28;20044;-79
2023/07/29 07:03:14;;;;;;;6.05;2.83;;;;;;;;;;5052107;28;20056;-80
2023/07/29 07:05:40;;;;;;;6.35;3.10;;;;;;;;;;5056973;28;20071;-78
2023/07/29 07:08:06;;;;;;;5.57;2.22;;;;;;;;;;5059828;28;20059;-78
2023/07/29 07:10:33;;;;;;;6.10;2.20;;;;;;;;;;5059681;28;20075;-78
2023/07/29 07:13:00;;;;;;;5.60;2.50;;;;;;;;;;5058310;28;20932;-78
2023/07/29 07:15:26;;;;;;;7.13;2.40;;;;;;;;;;5053061;28;20048;-78
2023/07/29 07:17:52;;;;;;;5.95;2.17;;;;;;;;;;5059914;28;20064;-79
2023/07/29 07:20:18;;;;;;;5.82;2.13;;;;;;;;;;5059506;28;20084;-78
2023/07/29 07:22:44;;;;;;;5.53;2.65;;;;;;;;;;5043348;28;20175;-81
2023/07/29 07:25:11;;;;;;;4.30;2.13;;;;;;;;;;5059238;28;20071;-77
2023/07/29 07:27:37;;;;;;;7.93;2.83;;;;;;;;;;5060084;28;20086;-82
2023/07/29 07:30:04;;;;;;;5.57;2.78;;;;;;;;;;5059164;28;20056;-79
2023/07/29 07:32:30;;;;;;;4.45;2.58;;;;;;;;;;5058880;28;20187;-78
2023/07/29 07:34:56;;;;;;;6.88;3.45;;;;;;;;;;5058476;28;20044;-80
2023/07/29 07:37:22;;;;;;;5.82;3.40;;;;;;;;;;5057817;28;20056;-79
2023/07/29 07:39:49;;;;;;;6.43;3.28;;;;;;;;;;5041291;28;20123;-77
2023/07/29 07:42:15;;;;;;;5.75;3.00;;;;;;;;;;5058004;28;20052;-78
2023/07/29 07:44:41;;;;;;;5.25;2.50;;;;;;;;;;5043168;28;20075;-80
2023/07/29 07:47:07;;;;;;;3.63;2.50;;;;;;;;;;5059498;28;20055;-77
2023/07/29 07:49:33;;;;;;;4.68;2.50;;;;;;;;;;5059693;28;20045;-79
2023/07/29 07:51:59;;;;;;;6.72;2.95;;;;;;;;;;5042301;28;20056;-79
2023/07/29 07:54:25;;;;;;;4.47;2.53;;;;;;;;;;5059555;28;20514;-77
2023/07/29 07:56:51;;;;;;;6.25;2.90;;;;;;;;;;5059730;28;20052;-77
2023/07/29 07:59:17;;;;;;;6.22;3.20;;;;;;;;;;5038120;28;20052;-77
2023/07/29 08:01:44;;;;;;;8.68;3.20;;;;;;;;;;5057121;28;20052;-78
2023/07/29 08:04:10;;;;;;;7.05;2.85;;;;;;;;;;5059010;28;20056;-78
2023/07/29 08:06:36;;;;;;;6.10;2.70;;;;;;;;;;5057809;28;20053;-77
2023/07/29 08:09:02;;;;;;;5.13;3.05;;;;;;;;;;5057425;28;20531;-78
2023/07/29 08:11:28;;;;;;;6.53;3.33;;;;;;;;;;5056528;28;20040;-77
2023/07/29 08:13:54;;;;;;;7.90;3.38;;;;;;;;;;5039697;28;20048;-77
2023/07/29 08:16:20;;;;;;;8.10;2.85;;;;;;;;;;5059154;28;20044;-77
2023/07/29 08:18:47;;;;;;;6.10;2.55;;;;;;;;;;5060835;28;20440;-81
2023/07/29 08:21:13;;;;;;;5.63;2.38;;;;;;;;;;5036628;28;20299;-78
2023/07/29 08:23:39;;;;;;;5.82;2.50;;;;;;;;;;5043376;28;20152;-76
2023/07/29 08:26:06;;;;;;;8.10;3.50;;;23.40;99.90;;;;;;5058389;28;20133;-79
2023/07/29 08:28:33;;;;;;;3.40;2.05;;;23.30;99.90;;;;;;5058235;28;20048;-77
2023/07/29 08:31:00;;;;;;;8.52;2.30;;;;;;;;;;5057899;28;20044;-79
2023/07/29 08:33:26;;;;;;;6.38;2.63;;;22.80;99.90;;;;;;5057264;28;20755;-78
2023/07/29 08:35:53;;;;;;;7.47;2.90;;;;;;;;;;5059462;28;20418;-77
2023/07/29 08:38:19;;;;;;;8.38;3.10;;;;;;;;;;5060719;28;20600;-80
2023/07/29 08:41:16;;;;;;;3.42;2.22;;;22.90;99.90;;;;;;5061188;28;20504;-77
2023/07/29 08:44:23;;;;;;;7.47;3.22;;;23.20;99.90;;;;;;5060598;28;20570;-77
2023/07/29 08:46:50;;;;;;;4.13;2.65;;;;;;;;;;5060441;28;20687;-78
2023/07/29 08:49:19;;;;;;;7.75;3.22;;;;;;;;;;5044751;28;20278;-77
2023/07/29 08:51:49;;;;;;;6.32;3.22;;;22.90;99.90;;;;;;5060429;28;20101;-79
2023/07/29 08:54:15;;;;;;;5.22;3.05;;;22.30;99.90;;;;;;5061576;28;20058;-76
2023/07/29 08:56:43;;;;;;;4.35;2.70;;;22.80;99.90;;;;;;5059940;28;20379;-75
2023/07/29 08:59:10;;;;;;;6.90;2.97;;;;;;;;;;5045247;28;20051;-75
2023/07/29 09:01:37;;;;;;;8.00;2.67;;;;;;;;;;5051161;28;20090;-78
2023/07/29 09:04:03;;;;;;;5.75;1.98;;;;;;;;;;5079809;28;20554;-77
2023/07/29 09:06:29;;;;;;;3.78;2.15;;;;;;;;;;5060842;28;20044;-78
2023/07/29 09:08:58;;;;;;;3.53;1.70;;;;;;;;;;5060664;28;20052;-77
2023/07/29 09:11:25;;;;;;;2.88;1.63;;;26.20;99.50;;;;;;5055888;28;20162;-76
2023/07/29 09:13:52;;;;;;;5.80;1.50;;;;;;;;;;5059014;28;20405;-75
2023/07/29 09:16:19;;;;;;;5.50;1.95;;;;;;;;;;5056801;28;20132;-77
2023/07/29 09:18:48;;;;;;;3.08;1.20;;;25.30;99.90;;;;;;5059782;28;20053;-78
2023/07/29 09:21:15;;;;;;;3.03;1.45;;;;;;;;;;5060563;28;20063;-78
2023/07/29 09:23:42;;;;;;;3.83;1.02;;;;;;;;;;5044730;28;20048;-79
2023/07/29 09:26:09;;;;;;;3.75;1.02;;;;;;;;;;5047226;28;20052;-77
2023/07/29 09:28:36;;;;;;;3.92;1.20;;;;;;;;;;5065239;28;20055;-76
2023/07/29 09:31:02;;;;;;;2.17;0.82;;;;;;;;;;5065654;28;20090;-78
2023/07/29 09:33:29;;;;;;;2.55;1.00;;;26.10;99.00;;;;;;5065663;28;20068;-80
2023/07/29 09:35:55;;;;;;;3.15;0.77;;;;;;;;;;5048250;28;20067;-80
2023/07/29 09:38:29;;;;;;;3.22;0.85;;;27.70;99.90;;;;;;5046853;28;20052;-82
2023/07/29 09:40:56;;;;;;;4.65;1.10;;;;;;;;;;5048719;28;20061;-78
2023/07/29 09:43:26;;;;;;;2.83;0.80;;;;;;;;;;5065493;28;20083;-76
2023/07/29 09:45:52;;;;;;;1.13;0.40;;;29.70;92.10;;;;;;5065392;28;20087;-78
2023/07/29 09:48:22;;;;;;;2.25;0.75;;;;;;;;;;5065326;28;20229;-77
2023/07/29 09:50:49;;;;;;;3.50;0.57;;;;;;;;;;5046713;28;20052;-79
2023/07/29 09:53:15;;;;;;;3.50;0.77;;;;;;;;;;5065145;28;20141;-76
2023/07/29 09:55:46;;;;;;;2.15;0.75;;;;;;;;;;5048057;28;20082;-76
2023/07/29 09:58:12;;;;;;;2.55;0.75;;;;;;;;;;5059517;28;20083;-77
2023/07/29 10:00:39;;;;;;;2.25;0.77;;;29.70;92.20;;;;;;5048722;28;20477;-83
2023/07/29 10:03:06;;;;;;;2.85;0.75;;;29.80;90.60;;;;;;5048059;28;20130;-77
2023/07/29 10:05:34;;;;;;;2.45;0.65;;;30.10;91.90;;;;;;5062429;28;20059;-81
2023/07/29 10:08:01;;;;;;;3.20;0.75;;;29.90;91.60;;;;;;5048268;28;20061;-77
2023/07/29 10:10:27;;;;;;;4.05;1.98;;;30.30;89.60;;;;;;5063866;28;20550;-78
2023/07/29 10:12:54;;;;;;;5.28;1.10;;;30.10;88.50;;;;;;5063896;28;20126;-80
2023/07/29 10:15:21;;;;;;;4.20;1.00;;;29.50;87.60;;;;;;5064119;28;20044;-78
2023/07/29 10:17:47;;;;;;;3.25;0.88;;;28.90;89.20;;;;;;5062241;28;20686;-78
2023/07/29 10:20:13;;;;;;;3.60;0.88;;;28.90;90.20;;;;;;5064186;28;20056;-77
2023/07/29 10:22:40;;;;;;;4.00;0.90;;;29.00;90.80;;;;;;5064730;28;20052;-76
2023/07/29 10:25:22;;;;;;;2.55;0.73;;;28.70;90.10;;;;;;5064521;28;20052;-78
2023/07/29 10:28:02;;;;;;;3.25;1.00;;;28.10;87.40;;;;;;5062411;28;20056;-78
2023/07/29 10:30:28;;;;;;;2.30;0.60;;;27.70;90.00;;;;;;5064877;28;20139;-77
2023/07/29 10:32:57;;;;;;;2.70;0.70;;;27.20;90.70;;;;;;5065295;28;20146;-76
2023/07/29 10:35:25;;;;;;;2.45;0.75;;;26.90;91.50;;;;;;5064832;28;20118;-81
2023/07/29 10:37:53;;;;;;;2.53;0.80;;;26.90;92.10;;;;;;5037562;28;20079;-84
2023/07/29 10:40:19;;;;;;;4.15;0.65;;;26.80;92.30;;;;;;5044068;28;20056;-78
2023/07/29 10:43:09;;;;;;;3.15;0.88;;;26.60;92.30;;;;;;5060843;28;20705;-76
2023/07/29 10:45:40;;;;;;;3.60;0.70;;;26.80;92.60;;;;;;5054102;28;20402;-75
2023/07/29 10:48:28;;;;;;;3.58;0.93;;;26.40;95.10;;;;;;5061068;28;20062;-79
2023/07/29 10:51:25;;;;;;;3.25;1.05;;;25.60;92.40;;;;;;5056487;28;20052;-77
2023/07/29 10:54:00;;;;;;;2.50;0.63;;;25.40;95.20;;;;;;5055498;28;20163;-77
2023/07/29 10:56:31;;;;;;;5.38;0.75;;;25.40;95.60;;;;;;5058664;28;20063;-79
2023/07/29 10:59:12;;;;;;;2.49;0.66;;;24.50;93.50;;;;;;4687817;28;10002586;-78
2023/07/29 11:01:43;;;;;;;3.38;0.80;;;24.30;94.40;;;;;;5041710;28;20086;-77
2023/07/29 11:04:24;;;;;;;3.78;0.52;;;24.00;95.30;;;;;;5051015;28;20109;-79
2023/07/29 11:07:07;;;;;;;2.00;0.50;;;23.90;96.10;;;;;;5034011;28;20060;-80
2023/07/29 11:09:51;;;;;;;4.40;0.57;;;23.80;96.30;;;;;;5053936;28;20048;-78
2023/07/29 11:12:47;;;;;;;3.88;0.70;;;23.50;96.60;;;;;;5048323;28;20033;-76
2023/07/29 11:15:40;;;;;;;1.08;0.40;;;23.30;97.00;;;;;;5051023;28;20117;-77
2023/07/29 11:18:09;;;;;;;3.30;0.55;;;22.80;98.10;;;;;;5038854;28;21009;-79
2023/07/29 11:20:37;;;;;;;3.70;0.80;;;;;;;;;;5053926;28;20041;-77
2023/07/29 11:23:03;;;;;;;3.80;0.80;;;22.60;98.50;;;;;;5044770;28;20087;-81
2023/07/29 11:25:30;;;;;;;3.08;1.02;;;22.40;98.80;;;;;;5053597;28;20139;-77
2023/07/29 11:27:59;;;;;;;6.57;1.08;;;22.20;99.40;;;;;;5037546;28;20052;-81
2023/07/29 11:30:31;;;;;;;7.53;1.35;;;;;;;;;;5038210;28;20052;-83
2023/07/29 11:33:00;;;;;;;10.15;1.40;;;21.30;99.90;;;;;;5050833;28;20049;-78
2023/07/29 11:35:26;;;;;;;2.67;1.23;;;;;;;;;;5056990;28;20183;-80
2023/07/29 11:37:54;;;;;;;3.67;1.20;;;20.60;99.90;;;;;;5053102;28;20052;-84
2023/07/29 11:40:24;;;;;;;6.53;1.20;;;20.80;99.90;;;;;;5038168;28;20067;-84
2023/07/29 11:42:51;;;;;;;7.75;1.73;;;;;;;;;;5035515;28;20052;-85
2023/07/29 11:45:18;;;;;;;3.50;1.02;;;;;;;;;;5057712;28;20504;-88
2023/07/29 11:47:44;;;;;;;4.50;1.80;;;;;;;;;;5046635;28;20886;-83
2023/07/29 11:50:15;;;;;;;3.28;1.02;;;24.40;99.90;;;;;;5036723;28;20044;-86
2023/07/29 11:52:45;;;;;;;3.45;1.20;;;21.10;99.90;;;;;;5040612;28;20109;-83
2023/07/29 11:55:13;;;;;;;3.45;1.10;;;21.20;99.90;;;;;;5038314;28;20095;-83
2023/07/29 11:57:39;;;;;;;4.47;1.15;;;21.30;99.90;;;;;;5051294;28;20480;-86
2023/07/29 12:00:09;;;;;;;5.05;1.50;;;21.30;99.90;;;;;;5046287;28;20052;-83
2023/07/29 12:02:41;;;;;;;5.30;1.63;;;21.30;99.90;;;;;;5051960;28;20052;-87
2023/07/29 12:05:09;;;;;;;4.60;1.65;;;21.30;99.90;;;;;;5049939;28;20048;-86
2023/07/29 12:07:35;;;;;;;3.92;1.48;;;;;;;;;;5053607;28;20048;-83
2023/07/29 12:10:03;;;;;;;3.35;1.83;;;21.50;99.90;;;;;;5058052;28;20072;-89
2023/07/29 12:12:29;;;;;;;4.45;1.80;;;;;;;;;;5042863;28;20041;-84
2023/07/29 12:14:55;;;;;;;4.25;1.75;;;;;;;;;;5036808;28;20052;-82
2023/07/29 12:17:22;;;;;;;5.22;1.50;;;;;;;;;;5041363;28;20127;-83
2023/07/29 12:19:48;;;;;;;5.55;2.00;;;;;;;;;;5049963;28;20044;-82
2023/07/29 12:22:19;;;;;;;3.65;1.42;;;22.40;99.90;;;;;;5053894;28;20060;-80
2023/07/29 12:24:45;;;;;;;2.95;1.52;;;;;;;;;;5054041;28;20056;-82
2023/07/29 12:27:17;;;;;;;3.67;1.23;;;22.70;99.90;;;;;;5050613;28;20051;-81
2023/07/29 12:29:43;;;;;;;5.85;1.50;;;22.80;99.90;;;;;;5056392;28;20036;-81
2023/07/29 12:32:10;;;;;;;5.13;1.40;;;22.80;99.90;;;;;;5034384;28;20087;-80
2023/07/29 12:34:38;;;;;;;5.03;1.90;;;21.90;99.90;;;;;;5038874;28;20050;-83
2023/07/29 12:37:06;;;;;;;3.92;1.20;;;23.30;99.90;;;;;;5052815;28;20060;-81
2023/07/29 12:39:36;;;;;;;3.90;1.13;;;;;;;;;;5054732;28;20481;-82
2023/07/29 12:42:03;;;;;;;2.95;1.05;;;22.80;99.90;;;;;;5051069;28;20055;-86
2023/07/29 12:44:34;;;;;;;2.58;0.82;;;22.60;99.90;;;;;;5039210;28;20135;-78
2023/07/29 12:47:05;;;;;;;3.88;1.20;;;22.50;99.90;;;;;;5054628;28;20079;-79
2023/07/29 12:49:32;;;;;;;3.22;1.20;;;;;;;;;;5054004;28;20087;-75
2023/07/29 12:51:59;;;;;;;1.92;0.90;;;22.10;99.90;;;;;;5052169;28;20088;-81
2023/07/29 12:54:26;;;;;;;3.08;1.20;;;;;;;;;;5046405;28;20091;-85
2023/07/29 12:56:52;;;;;;;3.80;1.30;;;;;;;;;;5051451;28;20103;-78
2023/07/29 12:59:18;;;;;;;4.53;1.10;;;;;;;;;;5029705;28;20056;-77
2023/07/29 13:01:44;;;;;;;5.30;0.95;;;;;;;;;;5031207;28;20056;-77
2023/07/29 13:04:10;;;;;;;4.05;1.20;;;22.30;99.90;;;;;;5048047;28;20056;-80
2023/07/29 13:06:36;;;;;;;2.67;1.10;;;;;;;;;;5047859;28;20638;-77
2023/07/29 13:09:03;;;;;;;2.65;1.10;;;;;;;;;;5044817;28;20055;-78
2023/07/29 13:11:29;;;;;;;5.72;1.42;;;;;;;;;;5049421;28;20048;-75
2023/07/29 13:13:55;;;;;;;2.38;1.02;;;;;;;;;;5047794;28;20063;-75
2023/07/29 13:16:21;;;;;;;4.50;1.13;;;;;;;;;;5053991;28;20848;-76
2023/07/29 13:18:47;;;;;;;3.58;1.02;;;;;;;;;;5037697;28;20036;-75
2023/07/29 13:21:13;;;;;;;4.75;1.30;;;;;;;;;;5054618;28;20044;-75
2023/07/29 13:23:40;;;;;;;2.67;1.20;;;;;;;;;;5049519;28;20105;-74
2023/07/29 13:26:06;;;;;;;2.95;1.10;;;;;;;;;;5034124;28;20044;-75
2023/07/29 13:28:32;;;;;;;4.88;1.10;;;;;;;;;;5047604;28;20053;-75
2023/07/29 13:30:58;;;;;;;2.20;0.70;;;;;;;;;;5053798;28;20043;-74
2023/07/29 13:33:24;;;;;;;5.88;1.00;;;;;;;;;;5054652;28;20060;-76
2023/07/29 13:35:50;;;;;;;2.75;0.80;;;;;;;;;;5037424;28;20044;-75
2023/07/29 13:38:16;;;;;;;8.02;1.33;;;;;;;;;;5049688;28;20045;-76
2023/07/29 13:40:43;;;;;;;2.58;0.63;;;;;;;;;;5036483;28;20621;-75
2023/07/29 13:43:09;;;;;;;1.67;0.60;;;;;;;;;;5054399;28;20052;-75
2023/07/29 13:45:35;;;;;;;3.08;0.60;;;;;;;;;;5054581;28;20123;-76
2023/07/29 13:48:01;;;;;;;2.95;0.70;;;;;;;;;;5052439;28;20061;-78
2023/07/29 13:50:27;;;;;;;1.27;0.63;;;;;;;;;;5053459;28;20036;-74
2023/07/29 13:52:54;;;;;;;2.88;0.60;;;;;;;;;;5053689;28;20048;-82
2023/07/29 13:55:20;;;;;;;4.65;0.57;;;;;;;;;;5055352;28;20048;-76
2023/07/29 13:57:46;;;;;;;2.00;0.57;;;;;;;;;;5050967;28;20516;-77
2023/07/29 14:00:12;;;;;;;1.73;0.50;;;;;;;;;;5053759;28;20052;-77
2023/07/29 14:02:38;;;;;;;2.03;0.40;;;;;;;;;;5051500;28;20532;-79
2023/07/29 14:05:06;;;;;;;1.98;0.40;;;;;;;;;;5051872;28;20070;-77